sensor_id;sensor_type;location;lat;lon;timestamp;P1;durP1;ratioP1;P2;durP2;ratioP2
65477;SDS011;53678;39.642;22.430;2024-01-30T00:00:05;7.10;;;4.47;;
65477;SDS011;53678;39.642;22.430;2024-01-30T00:02:31;11.05;;;6.25;;
65477;SDS011;53678;39.642;22.430;2024-01-30T00:05:00;10.13;;;6.95;;
65477;SDS011;53678;39.642;22.430;2024-01-30T00:07:26;7.82;;;5.20;;
65477;SDS011;53678;39.642;22.430;2024-01-30T00:09:53;8.60;;;4.93;;
65477;SDS011;53678;39.642;22.430;2024-01-30T00:12:21;10.07;;;5.72;;
65477;SDS011;53678;39.642;22.430;2024-01-30T00:14:47;11.02;;;5.93;;
65477;SDS011;53678;39.642;22.430;2024-01-30T00:17:13;9.65;;;6.03;;
65477;SDS011;53678;39.642;22.430;2024-01-30T00:19:40;12.13;;;6.18;;
65477;SDS011;53678;39.642;22.430;2024-01-30T00:22:08;9.05;;;5.95;;
65477;SDS011;53678;39.642;22.430;2024-01-30T00:24:39;10.07;;;5.28;;
65477;SDS011;53678;39.642;22.430;2024-01-30T00:27:08;13.48;;;7.47;;
65477;SDS011;53678;39.642;22.430;2024-01-30T00:29:41;9.55;;;5.43;;
65477;SDS011;53678;39.642;22.430;2024-01-30T00:32:06;9.27;;;5.68;;
65477;SDS011;53678;39.642;22.430;2024-01-30T00:34:32;11.30;;;5.30;;
65477;SDS011;53678;39.642;22.430;2024-01-30T00:36:58;10.38;;;5.25;;
65477;SDS011;53678;39.642;22.430;2024-01-30T00:39:25;9.32;;;5.65;;
65477;SDS011;53678;39.642;22.430;2024-01-30T00:41:51;10.18;;;6.10;;
65477;SDS011;53678;39.642;22.430;2024-01-30T00:44:16;8.70;;;5.75;;
65477;SDS011;53678;39.642;22.430;2024-01-30T00:46:42;10.48;;;6.00;;
65477;SDS011;53678;39.642;22.430;2024-01-30T00:49:08;11.80;;;6.90;;
65477;SDS011;53678;39.642;22.430;2024-01-30T00:51:34;9.98;;;6.05;;
65477;SDS011;53678;39.642;22.430;2024-01-30T00:54:05;10.20;;;6.00;;
65477;SDS011;53678;39.642;22.430;2024-01-30T00:56:31;9.60;;;5.85;;
65477;SDS011;53678;39.642;22.430;2024-01-30T00:59:02;10.00;;;5.95;;
65477;SDS011;53678;39.642;22.430;2024-01-30T01:01:29;15.05;;;6.85;;
65477;SDS011;53678;39.642;22.430;2024-01-30T01:03:55;10.63;;;6.05;;
65477;SDS011;53678;39.642;22.430;2024-01-30T01:06:24;9.70;;;6.15;;
65477;SDS011;53678;39.642;22.430;2024-01-30T01:08:49;9.10;;;5.05;;
65477;SDS011;53678;39.642;22.430;2024-01-30T01:11:15;7.68;;;4.80;;
65477;SDS011;53678;39.642;22.430;2024-01-30T01:13:41;7.75;;;4.93;;
65477;SDS011;53678;39.642;22.430;2024-01-30T01:16:07;7.32;;;4.88;;
65477;SDS011;53678;39.642;22.430;2024-01-30T01:18:32;8.10;;;5.30;;
65477;SDS011;53678;39.642;22.430;2024-01-30T01:20:59;7.97;;;5.45;;
65477;SDS011;53678;39.642;22.430;2024-01-30T01:23:25;8.15;;;5.20;;
65477;SDS011;53678;39.642;22.430;2024-01-30T01:25:51;8.48;;;5.22;;
65477;SDS011;53678;39.642;22.430;2024-01-30T01:28:17;8.07;;;3.92;;
65477;SDS011;53678;39.642;22.430;2024-01-30T01:30:43;4.53;;;2.85;;
65477;SDS011;53678;39.642;22.430;2024-01-30T01:33:10;6.20;;;4.00;;
65477;SDS011;53678;39.642;22.430;2024-01-30T01:35:36;5.65;;;3.80;;
65477;SDS011;53678;39.642;22.430;2024-01-30T01:38:02;7.03;;;3.72;;
65477;SDS011;53678;39.642;22.430;2024-01-30T01:40:29;5.70;;;3.60;;
65477;SDS011;53678;39.642;22.430;2024-01-30T01:42:55;5.40;;;3.50;;
65477;SDS011;53678;39.642;22.430;2024-01-30T01:45:21;3.97;;;2.67;;
65477;SDS011;53678;39.642;22.430;2024-01-30T01:47:51;4.45;;;2.80;;
65477;SDS011;53678;39.642;22.430;2024-01-30T01:50:19;4.95;;;2.83;;
65477;SDS011;53678;39.642;22.430;2024-01-30T01:52:47;4.78;;;2.60;;
65477;SDS011;53678;39.642;22.430;2024-01-30T01:55:16;4.60;;;2.50;;
65477;SDS011;53678;39.642;22.430;2024-01-30T01:57:47;6.80;;;2.95;;
65477;SDS011;53678;39.642;22.430;2024-01-30T02:00:14;4.35;;;2.83;;
65477;SDS011;53678;39.642;22.430;2024-01-30T02:02:41;4.90;;;3.10;;
65477;SDS011;53678;39.642;22.430;2024-01-30T02:05:11;5.55;;;2.72;;
65477;SDS011;53678;39.642;22.430;2024-01-30T02:07:37;5.35;;;2.67;;
65477;SDS011;53678;39.642;22.430;2024-01-30T02:10:03;4.97;;;2.40;;
65477;SDS011;53678;39.642;22.430;2024-01-30T02:12:29;5.25;;;2.50;;
65477;SDS011;53678;39.642;22.430;2024-01-30T02:14:55;3.05;;;2.03;;
65477;SDS011;53678;39.642;22.430;2024-01-30T02:17:21;3.60;;;2.08;;
65477;SDS011;53678;39.642;22.430;2024-01-30T02:19:48;4.35;;;2.28;;
65477;SDS011;53678;39.642;22.430;2024-01-30T02:22:15;5.10;;;1.98;;
65477;SDS011;53678;39.642;22.430;2024-01-30T02:24:41;3.50;;;2.10;;
65477;SDS011;53678;39.642;22.430;2024-01-30T02:27:08;3.55;;;2.05;;
65477;SDS011;53678;39.642;22.430;2024-01-30T02:29:36;4.07;;;3.00;;
65477;SDS011;53678;39.642;22.430;2024-01-30T02:32:02;4.30;;;2.65;;
65477;SDS011;53678;39.642;22.430;2024-01-30T02:34:32;4.68;;;2.60;;
65477;SDS011;53678;39.642;22.430;2024-01-30T02:37:00;3.75;;;2.50;;
65477;SDS011;53678;39.642;22.430;2024-01-30T02:39:26;3.72;;;1.98;;
65477;SDS011;53678;39.642;22.430;2024-01-30T02:41:52;4.45;;;2.70;;
65477;SDS011;53678;39.642;22.430;2024-01-30T02:44:17;4.35;;;1.80;;
65477;SDS011;53678;39.642;22.430;2024-01-30T02:46:43;3.47;;;2.35;;
65477;SDS011;53678;39.642;22.430;2024-01-30T02:49:09;2.75;;;1.70;;
65477;SDS011;53678;39.642;22.430;2024-01-30T02:51:37;3.63;;;2.10;;
65477;SDS011;53678;39.642;22.430;2024-01-30T02:54:04;3.40;;;2.30;;
65477;SDS011;53678;39.642;22.430;2024-01-30T02:56:31;2.70;;;1.70;;
65477;SDS011;53678;39.642;22.430;2024-01-30T02:58:57;3.80;;;1.98;;
65477;SDS011;53678;39.642;22.430;2024-01-30T03:01:23;2.90;;;1.67;;
65477;SDS011;53678;39.642;22.430;2024-01-30T03:03:49;3.63;;;1.70;;
65477;SDS011;53678;39.642;22.430;2024-01-30T03:06:16;5.43;;;2.03;;
65477;SDS011;53678;39.642;22.430;2024-01-30T03:08:45;3.50;;;2.03;;
65477;SDS011;53678;39.642;22.430;2024-01-30T03:11:11;3.65;;;2.10;;
65477;SDS011;53678;39.642;22.430;2024-01-30T03:13:37;3.45;;;1.95;;
65477;SDS011;53678;39.642;22.430;2024-01-30T03:16:03;4.30;;;2.15;;
65477;SDS011;53678;39.642;22.430;2024-01-30T03:18:30;4.30;;;1.77;;
65477;SDS011;53678;39.642;22.430;2024-01-30T03:20:55;4.15;;;2.28;;
65477;SDS011;53678;39.642;22.430;2024-01-30T03:23:21;3.58;;;1.92;;
65477;SDS011;53678;39.642;22.430;2024-01-30T03:25:48;3.55;;;2.28;;
65477;SDS011;53678;39.642;22.430;2024-01-30T03:28:14;4.07;;;2.38;;
65477;SDS011;53678;39.642;22.430;2024-01-30T03:30:40;3.90;;;2.10;;
65477;SDS011;53678;39.642;22.430;2024-01-30T03:33:06;3.13;;;1.83;;
65477;SDS011;53678;39.642;22.430;2024-01-30T03:35:32;2.83;;;1.90;;
65477;SDS011;53678;39.642;22.430;2024-01-30T03:37:58;5.13;;;1.85;;
65477;SDS011;53678;39.642;22.430;2024-01-30T03:40:24;3.53;;;2.08;;
65477;SDS011;53678;39.642;22.430;2024-01-30T03:42:49;3.50;;;1.95;;
65477;SDS011;53678;39.642;22.430;2024-01-30T03:45:15;4.40;;;2.58;;
65477;SDS011;53678;39.642;22.430;2024-01-30T03:47:45;5.30;;;2.13;;
65477;SDS011;53678;39.642;22.430;2024-01-30T03:50:11;4.50;;;2.50;;
65477;SDS011;53678;39.642;22.430;2024-01-30T03:52:36;5.32;;;2.38;;
65477;SDS011;53678;39.642;22.430;2024-01-30T03:55:02;5.32;;;2.80;;
65477;SDS011;53678;39.642;22.430;2024-01-30T03:57:29;5.40;;;3.20;;
65477;SDS011;53678;39.642;22.430;2024-01-30T03:59:56;4.97;;;3.20;;
65477;SDS011;53678;39.642;22.430;2024-01-30T04:02:21;3.78;;;2.42;;
65477;SDS011;53678;39.642;22.430;2024-01-30T04:04:47;4.20;;;2.40;;
65477;SDS011;53678;39.642;22.430;2024-01-30T04:07:13;3.80;;;2.33;;
65477;SDS011;53678;39.642;22.430;2024-01-30T04:09:39;4.90;;;2.60;;
65477;SDS011;53678;39.642;22.430;2024-01-30T04:12:05;4.07;;;2.50;;
65477;SDS011;53678;39.642;22.430;2024-01-30T04:14:32;5.45;;;2.30;;
65477;SDS011;53678;39.642;22.430;2024-01-30T04:16:59;2.95;;;1.90;;
65477;SDS011;53678;39.642;22.430;2024-01-30T04:19:25;3.97;;;2.30;;
65477;SDS011;53678;39.642;22.430;2024-01-30T04:21:51;3.85;;;2.20;;
65477;SDS011;53678;39.642;22.430;2024-01-30T04:24:18;3.78;;;2.20;;
65477;SDS011;53678;39.642;22.430;2024-01-30T04:26:44;3.10;;;2.05;;
65477;SDS011;53678;39.642;22.430;2024-01-30T04:29:10;5.07;;;2.65;;
65477;SDS011;53678;39.642;22.430;2024-01-30T04:31:37;5.25;;;2.55;;
65477;SDS011;53678;39.642;22.430;2024-01-30T04:34:02;6.22;;;2.55;;
65477;SDS011;53678;39.642;22.430;2024-01-30T04:36:28;4.43;;;2.63;;
65477;SDS011;53678;39.642;22.430;2024-01-30T04:38:54;4.82;;;2.88;;
65477;SDS011;53678;39.642;22.430;2024-01-30T04:41:20;5.25;;;3.15;;
65477;SDS011;53678;39.642;22.430;2024-01-30T04:43:48;5.63;;;3.47;;
65477;SDS011;53678;39.642;22.430;2024-01-30T04:46:14;8.57;;;4.65;;
65477;SDS011;53678;39.642;22.430;2024-01-30T04:48:41;11.30;;;5.35;;
65477;SDS011;53678;39.642;22.430;2024-01-30T04:51:08;15.20;;;8.43;;
65477;SDS011;53678;39.642;22.430;2024-01-30T04:53:35;8.75;;;4.82;;
65477;SDS011;53678;39.642;22.430;2024-01-30T04:56:06;9.65;;;4.97;;
65477;SDS011;53678;39.642;22.430;2024-01-30T04:58:32;9.27;;;4.80;;
65477;SDS011;53678;39.642;22.430;2024-01-30T05:00:59;9.57;;;5.00;;
65477;SDS011;53678;39.642;22.430;2024-01-30T05:03:26;8.75;;;4.47;;
65477;SDS011;53678;39.642;22.430;2024-01-30T05:05:51;7.20;;;3.72;;
65477;SDS011;53678;39.642;22.430;2024-01-30T05:08:17;6.35;;;3.78;;
65477;SDS011;53678;39.642;22.430;2024-01-30T05:10:43;6.60;;;3.47;;
65477;SDS011;53678;39.642;22.430;2024-01-30T05:13:09;8.45;;;4.60;;
65477;SDS011;53678;39.642;22.430;2024-01-30T05:15:35;7.28;;;3.53;;
65477;SDS011;53678;39.642;22.430;2024-01-30T05:18:04;6.75;;;3.65;;
65477;SDS011;53678;39.642;22.430;2024-01-30T05:20:30;7.28;;;4.07;;
65477;SDS011;53678;39.642;22.430;2024-01-30T05:22:56;8.30;;;3.90;;
65477;SDS011;53678;39.642;22.430;2024-01-30T05:25:23;4.97;;;3.33;;
65477;SDS011;53678;39.642;22.430;2024-01-30T05:27:49;6.53;;;3.72;;
65477;SDS011;53678;39.642;22.430;2024-01-30T05:30:15;14.32;;;4.10;;
65477;SDS011;53678;39.642;22.430;2024-01-30T05:32:43;6.95;;;4.03;;
65477;SDS011;53678;39.642;22.430;2024-01-30T05:35:10;10.30;;;4.78;;
65477;SDS011;53678;39.642;22.430;2024-01-30T05:37:38;10.35;;;5.40;;
65477;SDS011;53678;39.642;22.430;2024-01-30T05:40:03;4.68;;;3.33;;
65477;SDS011;53678;39.642;22.430;2024-01-30T05:42:31;10.20;;;4.05;;
65477;SDS011;53678;39.642;22.430;2024-01-30T05:44:57;7.55;;;4.60;;
65477;SDS011;53678;39.642;22.430;2024-01-30T05:47:23;7.22;;;4.43;;
65477;SDS011;53678;39.642;22.430;2024-01-30T05:49:49;5.60;;;3.20;;
65477;SDS011;53678;39.642;22.430;2024-01-30T05:52:15;14.60;;;4.00;;
65477;SDS011;53678;39.642;22.430;2024-01-30T05:54:41;12.68;;;4.38;;
65477;SDS011;53678;39.642;22.430;2024-01-30T05:57:10;12.77;;;5.35;;
65477;SDS011;53678;39.642;22.430;2024-01-30T05:59:36;8.32;;;4.85;;
65477;SDS011;53678;39.642;22.430;2024-01-30T06:02:02;7.20;;;3.50;;
65477;SDS011;53678;39.642;22.430;2024-01-30T06:04:29;11.15;;;3.65;;
65477;SDS011;53678;39.642;22.430;2024-01-30T06:06:56;11.55;;;3.78;;
65477;SDS011;53678;39.642;22.430;2024-01-30T06:09:22;7.55;;;3.78;;
65477;SDS011;53678;39.642;22.430;2024-01-30T06:11:48;8.63;;;3.08;;
65477;SDS011;53678;39.642;22.430;2024-01-30T06:14:14;20.55;;;3.60;;
65477;SDS011;53678;39.642;22.430;2024-01-30T06:16:39;4.03;;;2.22;;
65477;SDS011;53678;39.642;22.430;2024-01-30T06:19:05;7.97;;;2.40;;
65477;SDS011;53678;39.642;22.430;2024-01-30T06:21:31;5.65;;;2.10;;
65477;SDS011;53678;39.642;22.430;2024-01-30T06:24:02;5.75;;;2.17;;
65477;SDS011;53678;39.642;22.430;2024-01-30T06:26:29;20.33;;;4.28;;
65477;SDS011;53678;39.642;22.430;2024-01-30T06:28:57;15.85;;;3.22;;
65477;SDS011;53678;39.642;22.430;2024-01-30T06:31:23;22.25;;;4.85;;
65477;SDS011;53678;39.642;22.430;2024-01-30T06:33:49;3.92;;;2.20;;
65477;SDS011;53678;39.642;22.430;2024-01-30T06:36:15;7.68;;;2.50;;
65477;SDS011;53678;39.642;22.430;2024-01-30T06:38:41;7.55;;;2.38;;
65477;SDS011;53678;39.642;22.430;2024-01-30T06:41:07;22.67;;;3.75;;
65477;SDS011;53678;39.642;22.430;2024-01-30T06:43:34;11.27;;;4.03;;
65477;SDS011;53678;39.642;22.430;2024-01-30T06:46:00;28.65;;;3.53;;
65477;SDS011;53678;39.642;22.430;2024-01-30T06:48:26;20.42;;;3.53;;
65477;SDS011;53678;39.642;22.430;2024-01-30T06:50:54;8.02;;;2.78;;
65477;SDS011;53678;39.642;22.430;2024-01-30T06:53:22;14.35;;;3.53;;
65477;SDS011;53678;39.642;22.430;2024-01-30T06:55:49;22.88;;;2.95;;
65477;SDS011;53678;39.642;22.430;2024-01-30T06:58:17;9.02;;;3.17;;
65477;SDS011;53678;39.642;22.430;2024-01-30T07:00:44;6.80;;;2.28;;
65477;SDS011;53678;39.642;22.430;2024-01-30T07:03:09;6.07;;;3.05;;
65477;SDS011;53678;39.642;22.430;2024-01-30T07:05:35;5.45;;;2.33;;
65477;SDS011;53678;39.642;22.430;2024-01-30T07:08:01;11.57;;;3.40;;
65477;SDS011;53678;39.642;22.430;2024-01-30T07:10:27;7.32;;;3.15;;
65477;SDS011;53678;39.642;22.430;2024-01-30T07:12:55;19.88;;;3.78;;
65477;SDS011;53678;39.642;22.430;2024-01-30T07:15:20;28.67;;;4.65;;
65477;SDS011;53678;39.642;22.430;2024-01-30T07:17:47;5.57;;;2.38;;
65477;SDS011;53678;39.642;22.430;2024-01-30T07:20:14;10.18;;;3.30;;
65477;SDS011;53678;39.642;22.430;2024-01-30T07:22:40;9.85;;;2.53;;
65477;SDS011;53678;39.642;22.430;2024-01-30T07:25:07;10.88;;;3.30;;
65477;SDS011;53678;39.642;22.430;2024-01-30T07:27:34;12.68;;;2.25;;
65477;SDS011;53678;39.642;22.430;2024-01-30T07:30:00;3.70;;;2.00;;
65477;SDS011;53678;39.642;22.430;2024-01-30T07:32:26;6.85;;;2.30;;
65477;SDS011;53678;39.642;22.430;2024-01-30T07:34:52;4.63;;;1.63;;
65477;SDS011;53678;39.642;22.430;2024-01-30T07:37:19;5.18;;;2.05;;
65477;SDS011;53678;39.642;22.430;2024-01-30T07:39:45;9.63;;;2.45;;
65477;SDS011;53678;39.642;22.430;2024-01-30T07:42:11;10.00;;;2.47;;
65477;SDS011;53678;39.642;22.430;2024-01-30T07:44:36;23.92;;;3.88;;
65477;SDS011;53678;39.642;22.430;2024-01-30T07:47:02;4.30;;;2.50;;
65477;SDS011;53678;39.642;22.430;2024-01-30T07:49:28;10.05;;;2.72;;
65477;SDS011;53678;39.642;22.430;2024-01-30T07:51:54;6.45;;;2.42;;
65477;SDS011;53678;39.642;22.430;2024-01-30T07:54:20;8.98;;;2.28;;
65477;SDS011;53678;39.642;22.430;2024-01-30T07:56:46;5.32;;;2.58;;
65477;SDS011;53678;39.642;22.430;2024-01-30T07:59:12;5.80;;;1.95;;
65477;SDS011;53678;39.642;22.430;2024-01-30T08:01:38;3.17;;;1.92;;
65477;SDS011;53678;39.642;22.430;2024-01-30T08:04:03;12.13;;;2.90;;
65477;SDS011;53678;39.642;22.430;2024-01-30T08:06:29;13.25;;;3.05;;
65477;SDS011;53678;39.642;22.430;2024-01-30T08:08:55;26.23;;;5.47;;
65477;SDS011;53678;39.642;22.430;2024-01-30T08:11:22;4.13;;;2.28;;
65477;SDS011;53678;39.642;22.430;2024-01-30T08:13:53;17.60;;;2.88;;
65477;SDS011;53678;39.642;22.430;2024-01-30T08:16:18;9.45;;;3.67;;
65477;SDS011;53678;39.642;22.430;2024-01-30T08:18:44;17.60;;;3.53;;
65477;SDS011;53678;39.642;22.430;2024-01-30T08:21:11;5.35;;;2.25;;
65477;SDS011;53678;39.642;22.430;2024-01-30T08:23:38;9.93;;;2.67;;
65477;SDS011;53678;39.642;22.430;2024-01-30T08:26:04;11.27;;;3.13;;
65477;SDS011;53678;39.642;22.430;2024-01-30T08:28:32;6.50;;;2.60;;
65477;SDS011;53678;39.642;22.430;2024-01-30T08:30:59;4.70;;;2.85;;
65477;SDS011;53678;39.642;22.430;2024-01-30T08:33:25;9.57;;;2.75;;
65477;SDS011;53678;39.642;22.430;2024-01-30T08:35:51;8.60;;;2.90;;
65477;SDS011;53678;39.642;22.430;2024-01-30T08:38:16;7.13;;;2.85;;
65477;SDS011;53678;39.642;22.430;2024-01-30T08:40:43;9.65;;;2.53;;
65477;SDS011;53678;39.642;22.430;2024-01-30T08:43:10;10.20;;;2.85;;
65477;SDS011;53678;39.642;22.430;2024-01-30T08:45:37;12.85;;;3.42;;
65477;SDS011;53678;39.642;22.430;2024-01-30T08:48:03;10.50;;;2.70;;
65477;SDS011;53678;39.642;22.430;2024-01-30T08:50:29;11.02;;;2.80;;
65477;SDS011;53678;39.642;22.430;2024-01-30T08:52:56;26.23;;;10.93;;
65477;SDS011;53678;39.642;22.430;2024-01-30T08:55:22;15.93;;;4.05;;
65477;SDS011;53678;39.642;22.430;2024-01-30T08:57:49;27.77;;;4.60;;
65477;SDS011;53678;39.642;22.430;2024-01-30T09:00:17;15.52;;;3.85;;
65477;SDS011;53678;39.642;22.430;2024-01-30T09:02:44;4.72;;;1.98;;
65477;SDS011;53678;39.642;22.430;2024-01-30T09:05:10;21.17;;;3.63;;
65477;SDS011;53678;39.642;22.430;2024-01-30T09:07:35;3.30;;;1.98;;
65477;SDS011;53678;39.642;22.430;2024-01-30T09:10:01;3.45;;;1.85;;
65477;SDS011;53678;39.642;22.430;2024-01-30T09:12:29;8.60;;;2.30;;
65477;SDS011;53678;39.642;22.430;2024-01-30T09:14:55;2.88;;;1.95;;
65477;SDS011;53678;39.642;22.430;2024-01-30T09:17:21;5.28;;;2.03;;
65477;SDS011;53678;39.642;22.430;2024-01-30T09:19:46;30.63;;;4.10;;
65477;SDS011;53678;39.642;22.430;2024-01-30T09:22:12;3.83;;;1.60;;
65477;SDS011;53678;39.642;22.430;2024-01-30T09:24:40;2.45;;;1.45;;
65477;SDS011;53678;39.642;22.430;2024-01-30T09:27:05;3.53;;;1.70;;
65477;SDS011;53678;39.642;22.430;2024-01-30T09:29:31;3.10;;;1.80;;
65477;SDS011;53678;39.642;22.430;2024-01-30T09:32:00;4.88;;;1.98;;
65477;SDS011;53678;39.642;22.430;2024-01-30T09:34:26;2.88;;;1.80;;
65477;SDS011;53678;39.642;22.430;2024-01-30T09:36:52;9.57;;;2.35;;
65477;SDS011;53678;39.642;22.430;2024-01-30T09:39:20;3.17;;;1.58;;
65477;SDS011;53678;39.642;22.430;2024-01-30T09:41:49;3.42;;;2.00;;
65477;SDS011;53678;39.642;22.430;2024-01-30T09:44:23;2.55;;;1.80;;
65477;SDS011;53678;39.642;22.430;2024-01-30T09:46:53;4.50;;;2.28;;
65477;SDS011;53678;39.642;22.430;2024-01-30T09:49:20;3.38;;;1.95;;
65477;SDS011;53678;39.642;22.430;2024-01-30T09:51:46;3.60;;;1.90;;
65477;SDS011;53678;39.642;22.430;2024-01-30T09:54:14;4.57;;;1.85;;
65477;SDS011;53678;39.642;22.430;2024-01-30T09:56:42;7.50;;;1.67;;
65477;SDS011;53678;39.642;22.430;2024-01-30T09:59:09;2.33;;;1.60;;
65477;SDS011;53678;39.642;22.430;2024-01-30T10:01:35;7.22;;;1.92;;
65477;SDS011;53678;39.642;22.430;2024-01-30T10:04:01;8.35;;;2.58;;
65477;SDS011;53678;39.642;22.430;2024-01-30T10:06:32;3.20;;;1.63;;
65477;SDS011;53678;39.642;22.430;2024-01-30T10:09:00;4.32;;;1.55;;
65477;SDS011;53678;39.642;22.430;2024-01-30T10:11:25;3.10;;;1.88;;
65477;SDS011;53678;39.642;22.430;2024-01-30T10:13:52;4.53;;;2.10;;
65477;SDS011;53678;39.642;22.430;2024-01-30T10:16:18;5.70;;;2.60;;
65477;SDS011;53678;39.642;22.430;2024-01-30T10:18:44;4.32;;;2.10;;
65477;SDS011;53678;39.642;22.430;2024-01-30T10:21:10;7.57;;;1.92;;
65477;SDS011;53678;39.642;22.430;2024-01-30T10:23:37;3.28;;;1.50;;
65477;SDS011;53678;39.642;22.430;2024-01-30T10:26:03;3.70;;;2.08;;
65477;SDS011;53678;39.642;22.430;2024-01-30T10:28:31;8.10;;;2.28;;
65477;SDS011;53678;39.642;22.430;2024-01-30T10:31:00;4.50;;;1.83;;
65477;SDS011;53678;39.642;22.430;2024-01-30T10:33:26;4.93;;;2.40;;
65477;SDS011;53678;39.642;22.430;2024-01-30T10:36:02;3.45;;;1.90;;
65477;SDS011;53678;39.642;22.430;2024-01-30T10:38:29;5.75;;;2.28;;
65477;SDS011;53678;39.642;22.430;2024-01-30T10:40:56;6.63;;;1.98;;
65477;SDS011;53678;39.642;22.430;2024-01-30T10:43:24;6.40;;;1.92;;
65477;SDS011;53678;39.642;22.430;2024-01-30T10:45:57;3.50;;;1.88;;
65477;SDS011;53678;39.642;22.430;2024-01-30T10:48:29;2.72;;;1.80;;
65477;SDS011;53678;39.642;22.430;2024-01-30T10:50:57;7.68;;;1.90;;
65477;SDS011;53678;39.642;22.430;2024-01-30T10:53:27;4.43;;;2.53;;
65477;SDS011;53678;39.642;22.430;2024-01-30T10:55:54;4.00;;;1.58;;
65477;SDS011;53678;39.642;22.430;2024-01-30T10:58:22;2.92;;;1.50;;
65477;SDS011;53678;39.642;22.430;2024-01-30T11:00:49;5.15;;;2.60;;
65477;SDS011;53678;39.642;22.430;2024-01-30T11:03:17;3.20;;;2.10;;
65477;SDS011;53678;39.642;22.430;2024-01-30T11:05:48;3.08;;;2.10;;
65477;SDS011;53678;39.642;22.430;2024-01-30T11:08:25;4.28;;;2.05;;
65477;SDS011;53678;39.642;22.430;2024-01-30T11:10:59;3.30;;;1.88;;
65477;SDS011;53678;39.642;22.430;2024-01-30T11:13:30;5.07;;;2.28;;
65477;SDS011;53678;39.642;22.430;2024-01-30T11:16:03;6.18;;;1.55;;
65477;SDS011;53678;39.642;22.430;2024-01-30T11:20:57;7.07;;;2.42;;
65477;SDS011;53678;39.642;22.430;2024-01-30T11:23:26;3.90;;;2.15;;
65477;SDS011;53678;39.642;22.430;2024-01-30T11:25:52;2.20;;;1.50;;
65477;SDS011;53678;39.642;22.430;2024-01-30T11:28:18;2.95;;;1.80;;
65477;SDS011;53678;39.642;22.430;2024-01-30T11:30:48;9.80;;;2.08;;
65477;SDS011;53678;39.642;22.430;2024-01-30T11:33:26;3.35;;;1.58;;
65477;SDS011;53678;39.642;22.430;2024-01-30T11:35:56;3.88;;;1.63;;
65477;SDS011;53678;39.642;22.430;2024-01-30T11:38:26;2.65;;;1.75;;
65477;SDS011;53678;39.642;22.430;2024-01-30T11:40:54;2.90;;;1.77;;
65477;SDS011;53678;39.642;22.430;2024-01-30T11:43:21;4.00;;;1.85;;
65477;SDS011;53678;39.642;22.430;2024-01-30T11:45:47;4.30;;;1.90;;
65477;SDS011;53678;39.642;22.430;2024-01-30T11:48:13;2.80;;;1.60;;
65477;SDS011;53678;39.642;22.430;2024-01-30T11:50:39;3.53;;;1.50;;
65477;SDS011;53678;39.642;22.430;2024-01-30T11:53:09;3.72;;;2.25;;
65477;SDS011;53678;39.642;22.430;2024-01-30T11:55:36;2.63;;;1.63;;
65477;SDS011;53678;39.642;22.430;2024-01-30T11:58:03;3.50;;;1.67;;
65477;SDS011;53678;39.642;22.430;2024-01-30T12:00:31;2.97;;;1.42;;
65477;SDS011;53678;39.642;22.430;2024-01-30T12:03:01;9.75;;;2.10;;
65477;SDS011;53678;39.642;22.430;2024-01-30T12:05:27;4.40;;;1.73;;
65477;SDS011;53678;39.642;22.430;2024-01-30T12:07:53;7.38;;;1.80;;
65477;SDS011;53678;39.642;22.430;2024-01-30T12:10:21;4.68;;;1.88;;
65477;SDS011;53678;39.642;22.430;2024-01-30T12:12:48;2.38;;;1.40;;
65477;SDS011;53678;39.642;22.430;2024-01-30T12:15:15;3.35;;;1.92;;
65477;SDS011;53678;39.642;22.430;2024-01-30T12:17:42;5.60;;;1.90;;
65477;SDS011;53678;39.642;22.430;2024-01-30T12:20:13;3.05;;;2.10;;
65477;SDS011;53678;39.642;22.430;2024-01-30T13:38:34;3.53;;;1.80;;
65477;SDS011;53678;39.642;22.430;2024-01-30T13:41:00;5.55;;;1.90;;
65477;SDS011;53678;39.642;22.430;2024-01-30T13:43:26;4.45;;;1.90;;
65477;SDS011;53678;39.642;22.430;2024-01-30T13:45:52;3.67;;;2.22;;
65477;SDS011;53678;39.642;22.430;2024-01-30T13:48:18;5.32;;;2.22;;
65477;SDS011;53678;39.642;22.430;2024-01-30T13:50:44;3.17;;;2.00;;
65477;SDS011;53678;39.642;22.430;2024-01-30T13:53:11;6.15;;;2.30;;
65477;SDS011;53678;39.642;22.430;2024-01-30T13:55:38;4.00;;;2.50;;
65477;SDS011;53678;39.642;22.430;2024-01-30T13:58:06;4.43;;;2.05;;
65477;SDS011;53678;39.642;22.430;2024-01-30T14:00:33;3.40;;;1.60;;
65477;SDS011;53678;39.642;22.430;2024-01-30T14:03:00;5.63;;;2.38;;
65477;SDS011;53678;39.642;22.430;2024-01-30T14:05:26;2.75;;;1.25;;
65477;SDS011;53678;39.642;22.430;2024-01-30T14:07:56;9.35;;;1.80;;
65477;SDS011;53678;39.642;22.430;2024-01-30T14:10:23;5.03;;;1.58;;
65477;SDS011;53678;39.642;22.430;2024-01-30T14:12:49;3.30;;;1.77;;
65477;SDS011;53678;39.642;22.430;2024-01-30T14:15:15;5.40;;;1.55;;
65477;SDS011;53678;39.642;22.430;2024-01-30T14:17:43;2.15;;;1.30;;
65477;SDS011;53678;39.642;22.430;2024-01-30T14:20:10;18.42;;;3.63;;
65477;SDS011;53678;39.642;22.430;2024-01-30T14:22:39;2.75;;;1.52;;
65477;SDS011;53678;39.642;22.430;2024-01-30T14:25:06;7.65;;;3.20;;
65477;SDS011;53678;39.642;22.430;2024-01-30T14:27:34;3.17;;;1.92;;
65477;SDS011;53678;39.642;22.430;2024-01-30T14:30:02;4.80;;;1.70;;
65477;SDS011;53678;39.642;22.430;2024-01-30T14:32:28;3.78;;;1.90;;
65477;SDS011;53678;39.642;22.430;2024-01-30T14:34:54;4.50;;;2.33;;
65477;SDS011;53678;39.642;22.430;2024-01-30T14:37:20;3.50;;;2.30;;
65477;SDS011;53678;39.642;22.430;2024-01-30T14:39:48;4.97;;;2.28;;
65477;SDS011;53678;39.642;22.430;2024-01-30T14:42:17;6.25;;;2.45;;
65477;SDS011;53678;39.642;22.430;2024-01-30T14:44:45;5.78;;;2.30;;
65477;SDS011;53678;39.642;22.430;2024-01-30T14:47:10;3.35;;;1.30;;
65477;SDS011;53678;39.642;22.430;2024-01-30T14:49:38;2.72;;;1.70;;
65477;SDS011;53678;39.642;22.430;2024-01-30T14:52:04;3.97;;;2.50;;
65477;SDS011;53678;39.642;22.430;2024-01-30T14:54:30;6.18;;;2.20;;
65477;SDS011;53678;39.642;22.430;2024-01-30T14:56:56;13.13;;;2.47;;
65477;SDS011;53678;39.642;22.430;2024-01-30T14:59:24;6.53;;;3.42;;
65477;SDS011;53678;39.642;22.430;2024-01-30T15:01:51;4.95;;;2.65;;
65477;SDS011;53678;39.642;22.430;2024-01-30T15:04:20;7.43;;;2.80;;
65477;SDS011;53678;39.642;22.430;2024-01-30T15:06:46;6.55;;;2.50;;
65477;SDS011;53678;39.642;22.430;2024-01-30T15:09:14;7.45;;;3.20;;
65477;SDS011;53678;39.642;22.430;2024-01-30T15:11:43;5.78;;;2.20;;
65477;SDS011;53678;39.642;22.430;2024-01-30T15:14:11;7.50;;;3.38;;
65477;SDS011;53678;39.642;22.430;2024-01-30T15:16:37;6.07;;;2.95;;
65477;SDS011;53678;39.642;22.430;2024-01-30T15:19:04;6.75;;;2.80;;
65477;SDS011;53678;39.642;22.430;2024-01-30T15:21:30;7.60;;;3.92;;
65477;SDS011;53678;39.642;22.430;2024-01-30T15:23:58;5.43;;;2.70;;
65477;SDS011;53678;39.642;22.430;2024-01-30T15:26:25;7.82;;;3.13;;
65477;SDS011;53678;39.642;22.430;2024-01-30T15:28:51;10.05;;;4.18;;
65477;SDS011;53678;39.642;22.430;2024-01-30T15:31:17;7.20;;;3.40;;
65477;SDS011;53678;39.642;22.430;2024-01-30T15:33:43;4.72;;;2.67;;
65477;SDS011;53678;39.642;22.430;2024-01-30T15:36:09;6.07;;;2.38;;
65477;SDS011;53678;39.642;22.430;2024-01-30T15:38:38;5.57;;;2.92;;
65477;SDS011;53678;39.642;22.430;2024-01-30T15:41:04;5.75;;;2.70;;
65477;SDS011;53678;39.642;22.430;2024-01-30T15:43:30;6.85;;;3.50;;
65477;SDS011;53678;39.642;22.430;2024-01-30T15:45:58;7.65;;;3.90;;